SWR21N LSZH-LEPA
Flight info
| Callsign | SWR21N |
|---|---|
| Flight time | 1h 31m |
| Altitude | 41000 |
| Route | VEBIT T50 ROTOS Z669 ULMES DCT VADAR DCT GEVEA DCT INCUS DCT BALSI DCT RETNO DCT TUPOX DCT MTG DCT DIVKO DCT VATIR DCT PIVUS DCT BODEQ DCT VERSO L129 LUNIK |
| Aircraft | A359/H-SDE2E3GHIJ3J4J5LM1ORWXY/LB1D1 |
Departure
| Time | 2026-05-05 18:57 |
|---|---|
| Airport | Zürich Airport (LSZH) |
Arrival
| Time | 2026-05-05 20:29 |
|---|---|
| Airport | Palma de Mallorca Airport (LEPA) |
| Time | Latitude | Longitude | Altitude | Speed | Heading |
|---|---|---|---|---|---|
| 2026-05-05 18:16 | 47.46033 | 8.55834 | 1403 ft | 0 kts | 6° |
| 2026-05-05 18:43 | 47.46032 | 8.55833 | 1403 ft | 2 kts | 6° |
| 2026-05-05 18:43 | 47.46006 | 8.55829 | 1406 ft | 4 kts | 6° |
| 2026-05-05 18:43 | 47.45980 | 8.55825 | 1405 ft | 4 kts | 12° |
| 2026-05-05 18:44 | 47.45957 | 8.55811 | 1413 ft | 4 kts | 50° |
| 2026-05-05 18:44 | 47.45947 | 8.55777 | 1413 ft | 4 kts | 90° |
| 2026-05-05 18:44 | 47.45947 | 8.55762 | 1409 ft | 4 kts | 96° |
| 2026-05-05 18:47 | 47.45945 | 8.55806 | 1413 ft | 9 kts | 92° |
| 2026-05-05 18:47 | 47.45938 | 8.55920 | 1410 ft | 12 kts | 97° |
| 2026-05-05 18:47 | 47.45927 | 8.56054 | 1408 ft | 14 kts | 97° |
| 2026-05-05 18:47 | 47.45915 | 8.56206 | 1406 ft | 16 kts | 97° |
| 2026-05-05 18:48 | 47.45903 | 8.56373 | 1411 ft | 17 kts | 98° |
| 2026-05-05 18:48 | 47.45859 | 8.56471 | 1412 ft | 12 kts | 133° |
| 2026-05-05 18:48 | 47.45809 | 8.56570 | 1412 ft | 12 kts | 116° |
| 2026-05-05 18:48 | 47.45793 | 8.56699 | 1412 ft | 13 kts | 96° |
| 2026-05-05 18:49 | 47.45782 | 8.56845 | 1409 ft | 15 kts | 96° |
| 2026-05-05 18:49 | 47.45775 | 8.56937 | 1411 ft | 0 kts | 97° |
| 2026-05-05 18:49 | 47.45772 | 8.56965 | 1407 ft | 7 kts | 103° |
| 2026-05-05 18:49 | 47.45755 | 8.57011 | 1408 ft | 0 kts | 130° |
| 2026-05-05 18:55 | 47.45729 | 8.57030 | 1412 ft | 9 kts | 166° |
| 2026-05-05 18:56 | 47.45679 | 8.57025 | 1419 ft | 9 kts | 207° |
| 2026-05-05 18:56 | 47.45666 | 8.56951 | 1416 ft | 1 kts | 275° |
| 2026-05-05 18:56 | 47.45686 | 8.56655 | 1414 ft | 78 kts | 276° |
| 2026-05-05 18:57 | 47.45757 | 8.55392 | 1411 ft | 166 kts | 271° |
| 2026-05-05 18:57 | 47.45870 | 8.53528 | 2006 ft | 199 kts | 274° |
| 2026-05-05 18:57 | 47.46002 | 8.51355 | 2838 ft | 220 kts | 273° |
| 2026-05-05 18:57 | 47.46021 | 8.49014 | 3352 ft | 237 kts | 257° |
| 2026-05-05 18:58 | 47.45267 | 8.46841 | 4098 ft | 243 kts | 235° |
| 2026-05-05 18:58 | 47.44231 | 8.44822 | 4835 ft | 248 kts | 233° |
| 2026-05-05 18:58 | 47.43176 | 8.42805 | 5796 ft | 248 kts | 233° |
| 2026-05-05 18:58 | 47.42129 | 8.40783 | 6758 ft | 249 kts | 234° |
| 2026-05-05 18:59 | 47.41075 | 8.38727 | 7626 ft | 253 kts | 233° |
| 2026-05-05 18:59 | 47.40007 | 8.36633 | 8383 ft | 257 kts | 233° |
| 2026-05-05 18:59 | 47.38961 | 8.34464 | 8809 ft | 261 kts | 238° |
| 2026-05-05 18:59 | 47.38067 | 8.32131 | 8907 ft | 261 kts | 241° |
| 2026-05-05 19:00 | 47.37231 | 8.29775 | 9039 ft | 257 kts | 241° |
| 2026-05-05 19:00 | 47.36403 | 8.27426 | 9582 ft | 259 kts | 241° |
| 2026-05-05 19:00 | 47.35562 | 8.25050 | 10403 ft | 267 kts | 241° |
| 2026-05-05 19:00 | 47.34668 | 8.22525 | 10800 ft | 289 kts | 241° |
| 2026-05-05 19:01 | 47.34033 | 8.20739 | 11028 ft | 304 kts | 241° |
| 2026-05-05 19:01 | 47.33025 | 8.17909 | 11530 ft | 320 kts | 241° |
| 2026-05-05 19:01 | 47.31980 | 8.14974 | 11850 ft | 324 kts | 241° |
| 2026-05-05 19:01 | 47.30929 | 8.12014 | 12093 ft | 330 kts | 241° |
| 2026-05-05 19:02 | 47.29857 | 8.08995 | 12866 ft | 334 kts | 241° |
| 2026-05-05 19:02 | 47.28771 | 8.05947 | 13798 ft | 337 kts | 241° |
| 2026-05-05 19:02 | 47.27678 | 8.02879 | 14543 ft | 341 kts | 242° |
| 2026-05-05 19:02 | 47.26611 | 7.99727 | 15261 ft | 346 kts | 244° |
| 2026-05-05 19:03 | 47.25629 | 7.96471 | 15992 ft | 351 kts | 246° |
| 2026-05-05 19:03 | 47.24690 | 7.93131 | 16723 ft | 355 kts | 246° |
| 2026-05-05 19:03 | 47.23762 | 7.89736 | 17433 ft | 360 kts | 247° |
| 2026-05-05 19:03 | 47.22823 | 7.86288 | 18182 ft | 365 kts | 247° |
| 2026-05-05 19:04 | 47.21866 | 7.82804 | 18876 ft | 369 kts | 246° |
| 2026-05-05 19:04 | 47.20894 | 7.79298 | 19582 ft | 373 kts | 246° |
| 2026-05-05 19:04 | 47.19894 | 7.75742 | 20293 ft | 376 kts | 245° |
| 2026-05-05 19:04 | 47.18668 | 7.72336 | 20981 ft | 379 kts | 236° |
| 2026-05-05 19:05 | 47.17186 | 7.69176 | 21655 ft | 382 kts | 233° |
| 2026-05-05 19:05 | 47.15561 | 7.65999 | 22363 ft | 386 kts | 231° |
| 2026-05-05 19:05 | 47.13891 | 7.62882 | 22796 ft | 389 kts | 230° |
| 2026-05-05 19:05 | 47.12193 | 7.59778 | 22918 ft | 391 kts | 230° |
| 2026-05-05 19:06 | 47.10477 | 7.56659 | 22909 ft | 394 kts | 230° |
| 2026-05-05 19:06 | 47.08780 | 7.53570 | 22933 ft | 395 kts | 230° |
| 2026-05-05 19:06 | 47.07033 | 7.50375 | 23324 ft | 398 kts | 230° |
| 2026-05-05 19:06 | 47.05321 | 7.47233 | 23933 ft | 400 kts | 230° |
| 2026-05-05 19:07 | 47.03579 | 7.44032 | 24578 ft | 401 kts | 230° |
| 2026-05-05 19:07 | 47.01837 | 7.40824 | 25215 ft | 403 kts | 230° |
| 2026-05-05 19:07 | 47.00083 | 7.37602 | 25892 ft | 404 kts | 230° |
| 2026-05-05 19:07 | 46.98325 | 7.34391 | 26550 ft | 406 kts | 230° |
| 2026-05-05 19:08 | 46.96547 | 7.31155 | 27111 ft | 409 kts | 230° |
| 2026-05-05 19:08 | 46.94757 | 7.27901 | 27669 ft | 412 kts | 230° |
| 2026-05-05 19:08 | 46.92963 | 7.24633 | 28378 ft | 412 kts | 230° |
| 2026-05-05 19:08 | 46.91168 | 7.21361 | 28973 ft | 413 kts | 230° |
| 2026-05-05 19:09 | 46.89362 | 7.18072 | 29524 ft | 416 kts | 230° |
| 2026-05-05 19:09 | 46.87543 | 7.14761 | 30017 ft | 419 kts | 230° |
| 2026-05-05 19:09 | 46.85711 | 7.11430 | 30432 ft | 422 kts | 230° |
| 2026-05-05 19:09 | 46.83864 | 7.08077 | 30847 ft | 425 kts | 230° |
| 2026-05-05 19:10 | 46.82006 | 7.04708 | 31261 ft | 427 kts | 230° |
| 2026-05-05 19:10 | 46.80140 | 7.01330 | 31669 ft | 429 kts | 230° |
| 2026-05-05 19:10 | 46.78282 | 6.97971 | 32035 ft | 432 kts | 230° |
| 2026-05-05 19:10 | 46.76387 | 6.94547 | 32388 ft | 435 kts | 230° |
| 2026-05-05 19:11 | 46.74487 | 6.91120 | 32831 ft | 435 kts | 230° |
| 2026-05-05 19:11 | 46.72574 | 6.87675 | 33105 ft | 439 kts | 230° |
| 2026-05-05 19:11 | 46.70647 | 6.84207 | 33392 ft | 442 kts | 230° |
| 2026-05-05 19:11 | 46.68706 | 6.80719 | 33742 ft | 443 kts | 230° |
| 2026-05-05 19:12 | 46.66768 | 6.77240 | 34147 ft | 443 kts | 230° |
| 2026-05-05 19:12 | 46.64820 | 6.73757 | 34429 ft | 444 kts | 229° |
| 2026-05-05 19:12 | 46.62773 | 6.70377 | 34683 ft | 446 kts | 227° |
| 2026-05-05 19:12 | 46.60646 | 6.67103 | 34957 ft | 447 kts | 226° |
| 2026-05-05 19:13 | 46.58481 | 6.63853 | 35255 ft | 448 kts | 225° |
| 2026-05-05 19:13 | 46.56310 | 6.60599 | 35537 ft | 449 kts | 226° |
| 2026-05-05 19:13 | 46.54145 | 6.57326 | 35804 ft | 450 kts | 226° |
| 2026-05-05 19:13 | 46.51985 | 6.54029 | 36062 ft | 451 kts | 226° |
| 2026-05-05 19:14 | 46.49827 | 6.50715 | 36320 ft | 452 kts | 226° |
| 2026-05-05 19:14 | 46.47670 | 6.47390 | 36565 ft | 453 kts | 226° |
| 2026-05-05 19:14 | 46.45510 | 6.44058 | 36848 ft | 454 kts | 226° |
| 2026-05-05 19:14 | 46.43340 | 6.40711 | 36990 ft | 458 kts | 226° |
| 2026-05-05 19:15 | 46.41151 | 6.37341 | 37205 ft | 459 kts | 226° |
| 2026-05-05 19:15 | 46.38963 | 6.33978 | 37472 ft | 459 kts | 226° |
| 2026-05-05 19:15 | 46.36775 | 6.30620 | 37815 ft | 457 kts | 226° |
| 2026-05-05 19:15 | 46.34592 | 6.27275 | 38060 ft | 458 kts | 226° |
| 2026-05-05 19:16 | 46.32400 | 6.23921 | 38277 ft | 459 kts | 226° |
| 2026-05-05 19:16 | 46.30184 | 6.20590 | 38470 ft | 460 kts | 224° |
| 2026-05-05 19:16 | 46.27758 | 6.17563 | 38656 ft | 461 kts | 217° |
| 2026-05-05 19:16 | 46.25069 | 6.15028 | 38833 ft | 462 kts | 209° |
| 2026-05-05 19:17 | 46.22148 | 6.13089 | 39019 ft | 463 kts | 201° |
| 2026-05-05 19:17 | 46.19047 | 6.11811 | 39200 ft | 465 kts | 193° |
| 2026-05-05 19:17 | 46.15866 | 6.10956 | 39443 ft | 464 kts | 191° |
| 2026-05-05 19:17 | 46.12683 | 6.10231 | 39631 ft | 464 kts | 191° |
| 2026-05-05 19:18 | 46.09483 | 6.09557 | 39785 ft | 465 kts | 190° |
| 2026-05-05 19:18 | 46.06280 | 6.08896 | 39938 ft | 465 kts | 190° |
| 2026-05-05 19:18 | 46.03082 | 6.08227 | 40129 ft | 465 kts | 190° |
| 2026-05-05 19:18 | 45.99879 | 6.07543 | 40279 ft | 465 kts | 191° |
| 2026-05-05 19:19 | 45.96695 | 6.06853 | 40585 ft | 461 kts | 191° |
| 2026-05-05 19:19 | 45.93527 | 6.06160 | 40779 ft | 460 kts | 191° |
| 2026-05-05 19:19 | 45.90359 | 6.05461 | 40884 ft | 462 kts | 191° |
| 2026-05-05 19:19 | 45.87180 | 6.04758 | 40907 ft | 463 kts | 191° |
| 2026-05-05 19:20 | 45.80824 | 6.03350 | 40905 ft | 462 kts | 191° |
| 2026-05-05 19:20 | 45.74473 | 6.01946 | 40905 ft | 461 kts | 191° |
| 2026-05-05 19:21 | 45.68387 | 6.00606 | 40884 ft | 461 kts | 191° |
| 2026-05-05 19:21 | 45.62051 | 5.99214 | 40883 ft | 461 kts | 191° |
| 2026-05-05 19:22 | 45.55711 | 5.97823 | 40882 ft | 461 kts | 191° |
| 2026-05-05 19:22 | 45.49362 | 5.96433 | 40885 ft | 461 kts | 191° |
| 2026-05-05 19:23 | 45.43042 | 5.94858 | 40888 ft | 460 kts | 194° |
| 2026-05-05 19:23 | 45.36835 | 5.92824 | 40897 ft | 461 kts | 195° |
| 2026-05-05 19:24 | 45.30583 | 5.90753 | 40901 ft | 462 kts | 195° |
| 2026-05-05 19:24 | 45.24307 | 5.88758 | 40904 ft | 462 kts | 194° |
| 2026-05-05 19:25 | 45.18029 | 5.86808 | 40908 ft | 462 kts | 194° |
| 2026-05-05 19:25 | 45.11742 | 5.84866 | 40904 ft | 462 kts | 194° |
| 2026-05-05 19:26 | 45.05455 | 5.82928 | 40915 ft | 463 kts | 194° |
| 2026-05-05 19:26 | 44.99166 | 5.80988 | 40915 ft | 463 kts | 194° |
| 2026-05-05 19:27 | 44.92865 | 5.79049 | 40903 ft | 463 kts | 194° |
| 2026-05-05 19:27 | 44.86562 | 5.77114 | 40905 ft | 463 kts | 194° |
| 2026-05-05 19:28 | 44.80268 | 5.75187 | 40922 ft | 463 kts | 195° |
| 2026-05-05 19:28 | 44.73983 | 5.73269 | 40921 ft | 462 kts | 195° |
| 2026-05-05 19:29 | 44.67742 | 5.71367 | 40925 ft | 462 kts | 195° |
| 2026-05-05 19:29 | 44.61412 | 5.69438 | 40921 ft | 463 kts | 195° |
| 2026-05-05 19:30 | 44.55154 | 5.67536 | 40925 ft | 464 kts | 195° |
| 2026-05-05 19:30 | 44.48851 | 5.65627 | 40923 ft | 464 kts | 195° |
| 2026-05-05 19:31 | 44.42549 | 5.63724 | 40936 ft | 463 kts | 195° |
| 2026-05-05 19:31 | 44.36363 | 5.61384 | 40919 ft | 459 kts | 202° |
| 2026-05-05 19:32 | 44.30390 | 5.58235 | 40916 ft | 458 kts | 204° |
| 2026-05-05 19:32 | 44.24464 | 5.54972 | 40925 ft | 457 kts | 204° |
| 2026-05-05 19:33 | 44.18566 | 5.51722 | 40928 ft | 456 kts | 204° |
| 2026-05-05 19:33 | 44.12666 | 5.48496 | 40929 ft | 456 kts | 204° |
| 2026-05-05 19:34 | 44.06770 | 5.45289 | 40915 ft | 455 kts | 204° |
| 2026-05-05 19:35 | 43.97942 | 5.40503 | 40915 ft | 453 kts | 204° |
| 2026-05-05 19:35 | 43.92064 | 5.37322 | 40919 ft | 453 kts | 204° |
| 2026-05-05 19:36 | 43.86186 | 5.34144 | 40919 ft | 454 kts | 204° |
| 2026-05-05 19:36 | 43.80334 | 5.30986 | 40914 ft | 456 kts | 204° |
| 2026-05-05 19:37 | 43.74376 | 5.27779 | 40912 ft | 457 kts | 204° |
| 2026-05-05 19:37 | 43.68446 | 5.24596 | 40906 ft | 458 kts | 204° |
| 2026-05-05 19:38 | 43.62550 | 5.21437 | 40910 ft | 457 kts | 204° |
| 2026-05-05 19:38 | 43.56617 | 5.18264 | 40912 ft | 457 kts | 204° |
| 2026-05-05 19:39 | 43.50678 | 5.15095 | 40908 ft | 457 kts | 204° |
| 2026-05-05 19:39 | 43.44739 | 5.11933 | 40911 ft | 457 kts | 204° |
| 2026-05-05 19:40 | 43.38887 | 5.08555 | 40912 ft | 454 kts | 211° |
| 2026-05-05 19:40 | 43.33554 | 5.03959 | 40910 ft | 453 kts | 216° |
| 2026-05-05 19:41 | 43.28358 | 4.99075 | 40913 ft | 452 kts | 217° |
| 2026-05-05 19:41 | 43.23195 | 4.94173 | 40920 ft | 452 kts | 217° |
| 2026-05-05 19:42 | 43.18007 | 4.89280 | 40909 ft | 453 kts | 216° |
| 2026-05-05 19:42 | 43.12803 | 4.84404 | 40903 ft | 453 kts | 216° |
| 2026-05-05 19:43 | 43.07606 | 4.79552 | 40907 ft | 451 kts | 216° |
| 2026-05-05 19:43 | 43.02227 | 4.75124 | 40908 ft | 452 kts | 212° |
| 2026-05-05 19:44 | 42.96731 | 4.70921 | 40906 ft | 452 kts | 211° |
| 2026-05-05 19:44 | 42.91412 | 4.66908 | 40894 ft | 452 kts | 211° |
| 2026-05-05 19:45 | 42.85926 | 4.62774 | 40906 ft | 450 kts | 211° |
| 2026-05-05 19:45 | 42.80459 | 4.58654 | 40906 ft | 449 kts | 212° |
| 2026-05-05 19:46 | 42.74987 | 4.54535 | 40910 ft | 450 kts | 212° |
| 2026-05-05 19:46 | 42.69536 | 4.50439 | 40908 ft | 451 kts | 212° |
| 2026-05-05 19:47 | 42.64050 | 4.46327 | 40902 ft | 451 kts | 211° |
| 2026-05-05 19:47 | 42.58557 | 4.42218 | 40900 ft | 451 kts | 211° |
| 2026-05-05 19:48 | 42.53062 | 4.38115 | 40897 ft | 451 kts | 211° |
| 2026-05-05 19:48 | 42.47578 | 4.34030 | 40904 ft | 449 kts | 212° |
| 2026-05-05 19:49 | 42.42104 | 4.29960 | 40900 ft | 448 kts | 212° |
| 2026-05-05 19:49 | 42.36638 | 4.25903 | 40900 ft | 448 kts | 211° |
| 2026-05-05 19:50 | 42.31167 | 4.21851 | 40891 ft | 448 kts | 212° |
| 2026-05-05 19:50 | 42.26627 | 4.18496 | 40908 ft | 447 kts | 212° |
| 2026-05-05 19:51 | 42.21162 | 4.14462 | 40902 ft | 448 kts | 212° |
| 2026-05-05 19:51 | 42.15682 | 4.10424 | 40900 ft | 449 kts | 212° |
| 2026-05-05 19:52 | 42.10197 | 4.06389 | 40893 ft | 449 kts | 212° |
| 2026-05-05 19:52 | 42.10125 | 4.06336 | 40895 ft | 449 kts | 212° |
| 2026-05-05 19:53 | 42.09462 | 4.05850 | 40900 ft | 449 kts | 212° |
| 2026-05-05 19:54 | 42.03989 | 4.01841 | 40897 ft | 448 kts | 212° |
| 2026-05-05 19:54 | 41.98509 | 3.97834 | 40897 ft | 448 kts | 212° |
| 2026-05-05 19:55 | 41.92920 | 3.94113 | 40895 ft | 452 kts | 204° |
| 2026-05-05 19:55 | 41.86796 | 3.92012 | 40894 ft | 456 kts | 195° |
| 2026-05-05 19:56 | 41.80530 | 3.90531 | 40895 ft | 458 kts | 194° |
| 2026-05-05 19:56 | 41.74244 | 3.89140 | 40895 ft | 458 kts | 194° |
| 2026-05-05 19:57 | 41.67963 | 3.87727 | 40895 ft | 458 kts | 194° |
| 2026-05-05 19:57 | 41.61690 | 3.86294 | 40895 ft | 457 kts | 194° |
| 2026-05-05 19:58 | 41.55424 | 3.84849 | 40894 ft | 457 kts | 194° |
| 2026-05-05 19:58 | 41.49151 | 3.83409 | 40887 ft | 457 kts | 194° |
| 2026-05-05 19:59 | 41.42886 | 3.81978 | 40901 ft | 456 kts | 194° |
| 2026-05-05 19:59 | 41.36642 | 3.80552 | 40906 ft | 456 kts | 194° |
| 2026-05-05 20:00 | 41.30410 | 3.79129 | 40907 ft | 458 kts | 194° |
| 2026-05-05 20:00 | 41.24126 | 3.77699 | 40902 ft | 458 kts | 194° |
| 2026-05-05 20:00 | 41.20994 | 3.76989 | 40683 ft | 453 kts | 194° |
| 2026-05-05 20:01 | 41.17895 | 3.76289 | 40119 ft | 451 kts | 194° |
| 2026-05-05 20:01 | 41.14868 | 3.75316 | 39498 ft | 445 kts | 203° |
| 2026-05-05 20:01 | 41.11961 | 3.73925 | 38796 ft | 445 kts | 205° |
| 2026-05-05 20:01 | 41.09064 | 3.72458 | 38016 ft | 446 kts | 205° |
| 2026-05-05 20:02 | 41.06174 | 3.70980 | 37234 ft | 444 kts | 206° |
| 2026-05-05 20:02 | 41.03329 | 3.69524 | 36349 ft | 433 kts | 206° |
| 2026-05-05 20:02 | 41.00534 | 3.68091 | 35135 ft | 428 kts | 206° |
| 2026-05-05 20:02 | 40.97773 | 3.66673 | 33942 ft | 424 kts | 206° |
| 2026-05-05 20:03 | 40.95039 | 3.65269 | 32471 ft | 421 kts | 206° |
| 2026-05-05 20:03 | 40.92329 | 3.63879 | 31489 ft | 410 kts | 207° |
| 2026-05-05 20:03 | 40.89697 | 3.62532 | 30843 ft | 404 kts | 207° |
| 2026-05-05 20:03 | 40.87067 | 3.61180 | 30578 ft | 407 kts | 207° |
| 2026-05-05 20:04 | 40.84407 | 3.59812 | 30344 ft | 416 kts | 207° |
| 2026-05-05 20:04 | 40.81706 | 3.58426 | 29997 ft | 415 kts | 207° |
| 2026-05-05 20:04 | 40.79023 | 3.57059 | 29320 ft | 411 kts | 207° |
| 2026-05-05 20:04 | 40.76376 | 3.55710 | 28731 ft | 406 kts | 207° |
| 2026-05-05 20:05 | 40.73755 | 3.54376 | 28161 ft | 401 kts | 207° |
| 2026-05-05 20:05 | 40.71204 | 3.53076 | 27608 ft | 396 kts | 207° |
| 2026-05-05 20:05 | 40.68647 | 3.51775 | 27049 ft | 391 kts | 207° |
| 2026-05-05 20:05 | 40.66121 | 3.50489 | 26498 ft | 387 kts | 207° |
| 2026-05-05 20:06 | 40.63624 | 3.49219 | 25942 ft | 383 kts | 207° |
| 2026-05-05 20:06 | 40.61153 | 3.47964 | 25399 ft | 379 kts | 207° |
| 2026-05-05 20:06 | 40.58703 | 3.46719 | 24879 ft | 375 kts | 207° |
| 2026-05-05 20:06 | 40.56280 | 3.45490 | 24322 ft | 372 kts | 207° |
| 2026-05-05 20:07 | 40.53873 | 3.44269 | 23792 ft | 369 kts | 207° |
| 2026-05-05 20:07 | 40.51657 | 3.43146 | 23248 ft | 367 kts | 207° |
| 2026-05-05 20:07 | 40.49290 | 3.41947 | 22662 ft | 363 kts | 207° |
| 2026-05-05 20:07 | 40.46945 | 3.40761 | 22116 ft | 359 kts | 207° |
| 2026-05-05 20:08 | 40.44562 | 3.39728 | 21548 ft | 362 kts | 200° |
| 2026-05-05 20:08 | 40.42036 | 3.39349 | 20956 ft | 370 kts | 187° |
| 2026-05-05 20:08 | 40.39449 | 3.39444 | 20372 ft | 372 kts | 185° |
| 2026-05-05 20:08 | 40.36869 | 3.39610 | 19773 ft | 371 kts | 184° |
| 2026-05-05 20:09 | 40.34295 | 3.39775 | 19180 ft | 369 kts | 184° |
| 2026-05-05 20:09 | 40.31737 | 3.39931 | 18585 ft | 368 kts | 184° |
| 2026-05-05 20:09 | 40.29184 | 3.40082 | 17933 ft | 366 kts | 184° |
| 2026-05-05 20:09 | 40.26650 | 3.40229 | 17286 ft | 364 kts | 184° |
| 2026-05-05 20:10 | 40.24134 | 3.40375 | 16677 ft | 360 kts | 184° |
| 2026-05-05 20:10 | 40.21639 | 3.40518 | 16074 ft | 357 kts | 183° |
| 2026-05-05 20:10 | 40.19174 | 3.40659 | 15600 ft | 350 kts | 183° |
| 2026-05-05 20:10 | 40.16794 | 3.40800 | 15453 ft | 335 kts | 183° |
| 2026-05-05 20:11 | 40.14515 | 3.40935 | 15297 ft | 321 kts | 184° |
| 2026-05-05 20:11 | 40.12310 | 3.41061 | 14904 ft | 311 kts | 184° |
| 2026-05-05 20:11 | 40.10183 | 3.41181 | 14196 ft | 303 kts | 184° |
| 2026-05-05 20:11 | 40.08093 | 3.41296 | 13404 ft | 298 kts | 183° |
| 2026-05-05 20:12 | 40.06039 | 3.41409 | 12577 ft | 294 kts | 183° |
| 2026-05-05 20:12 | 40.04003 | 3.41521 | 11759 ft | 291 kts | 182° |
| 2026-05-05 20:12 | 40.02029 | 3.41330 | 10960 ft | 280 kts | 200° |
| 2026-05-05 20:12 | 40.00364 | 3.40147 | 10192 ft | 271 kts | 225° |
| 2026-05-05 20:13 | 39.99306 | 3.38169 | 9389 ft | 266 kts | 247° |
| 2026-05-05 20:13 | 39.98655 | 3.35916 | 8545 ft | 265 kts | 251° |
| 2026-05-05 20:13 | 39.98070 | 3.33637 | 7736 ft | 265 kts | 252° |
| 2026-05-05 20:13 | 39.97485 | 3.31381 | 7237 ft | 261 kts | 252° |
| 2026-05-05 20:14 | 39.96892 | 3.29128 | 7074 ft | 263 kts | 252° |
| 2026-05-05 20:14 | 39.96298 | 3.26882 | 6711 ft | 261 kts | 252° |
| 2026-05-05 20:14 | 39.95614 | 3.24696 | 6353 ft | 262 kts | 241° |
| 2026-05-05 20:14 | 39.94346 | 3.22992 | 6056 ft | 265 kts | 217° |
| 2026-05-05 20:15 | 39.92757 | 3.21735 | 5986 ft | 268 kts | 212° |
| 2026-05-05 20:15 | 39.91121 | 3.20556 | 5985 ft | 269 kts | 212° |
| 2026-05-05 20:15 | 39.89460 | 3.19437 | 5983 ft | 269 kts | 206° |
| 2026-05-05 20:15 | 39.87644 | 3.18803 | 5980 ft | 274 kts | 189° |
| 2026-05-05 20:16 | 39.85790 | 3.19050 | 5978 ft | 264 kts | 164° |
| 2026-05-05 20:16 | 39.84268 | 3.20243 | 5896 ft | 253 kts | 137° |
| 2026-05-05 20:16 | 39.83137 | 3.21932 | 5739 ft | 243 kts | 130° |
| 2026-05-05 20:16 | 39.82099 | 3.23588 | 5653 ft | 228 kts | 136° |
| 2026-05-05 20:17 | 39.80881 | 3.24779 | 5640 ft | 214 kts | 159° |
| 2026-05-05 20:17 | 39.79526 | 3.25197 | 5602 ft | 190 kts | 186° |
| 2026-05-05 20:17 | 39.78310 | 3.24808 | 5378 ft | 176 kts | 213° |
| 2026-05-05 20:17 | 39.77404 | 3.23790 | 4950 ft | 176 kts | 233° |
| 2026-05-05 20:18 | 39.76344 | 3.22905 | 4469 ft | 189 kts | 208° |
| 2026-05-05 20:18 | 39.75098 | 3.22263 | 4027 ft | 194 kts | 205° |
| 2026-05-05 20:18 | 39.73796 | 3.22102 | 3870 ft | 190 kts | 168° |
| 2026-05-05 20:18 | 39.72777 | 3.23096 | 3787 ft | 180 kts | 133° |
| 2026-05-05 20:19 | 39.71776 | 3.23923 | 3748 ft | 168 kts | 178° |
| 2026-05-05 20:19 | 39.70727 | 3.23585 | 3775 ft | 152 kts | 219° |
| 2026-05-05 20:19 | 39.70053 | 3.22589 | 3771 ft | 146 kts | 247° |
| 2026-05-05 20:19 | 39.69749 | 3.21343 | 3684 ft | 146 kts | 259° |
| 2026-05-05 20:20 | 39.69511 | 3.20015 | 3319 ft | 153 kts | 258° |
| 2026-05-05 20:20 | 39.69269 | 3.18701 | 3159 ft | 146 kts | 258° |
| 2026-05-05 20:20 | 39.69030 | 3.17435 | 3034 ft | 144 kts | 257° |
| 2026-05-05 20:20 | 39.68788 | 3.16176 | 2989 ft | 144 kts | 258° |
| 2026-05-05 20:21 | 39.68543 | 3.14906 | 2982 ft | 150 kts | 258° |
| 2026-05-05 20:21 | 39.68280 | 3.13541 | 2992 ft | 159 kts | 257° |
| 2026-05-05 20:21 | 39.68008 | 3.12146 | 2989 ft | 160 kts | 257° |
| 2026-05-05 20:21 | 39.67728 | 3.10717 | 2983 ft | 171 kts | 257° |
| 2026-05-05 20:22 | 39.67425 | 3.09167 | 2988 ft | 180 kts | 257° |
| 2026-05-05 20:22 | 39.67114 | 3.07588 | 2990 ft | 181 kts | 257° |
| 2026-05-05 20:22 | 39.66802 | 3.06001 | 2989 ft | 182 kts | 257° |
| 2026-05-05 20:22 | 39.66488 | 3.04407 | 2989 ft | 183 kts | 257° |
| 2026-05-05 20:23 | 39.66172 | 3.02810 | 2992 ft | 182 kts | 257° |
| 2026-05-05 20:23 | 39.65859 | 3.01218 | 2992 ft | 182 kts | 257° |
| 2026-05-05 20:23 | 39.65544 | 2.99621 | 2992 ft | 183 kts | 257° |
| 2026-05-05 20:23 | 39.65227 | 2.98023 | 2992 ft | 183 kts | 257° |
| 2026-05-05 20:24 | 39.64877 | 2.96431 | 2990 ft | 184 kts | 251° |
| 2026-05-05 20:24 | 39.64324 | 2.94927 | 2998 ft | 186 kts | 243° |
| 2026-05-05 20:24 | 39.63672 | 2.93488 | 2984 ft | 181 kts | 242° |
| 2026-05-05 20:24 | 39.63055 | 2.92129 | 2857 ft | 168 kts | 242° |
| 2026-05-05 20:25 | 39.62467 | 2.90880 | 2633 ft | 157 kts | 241° |
| 2026-05-05 20:25 | 39.61918 | 2.89715 | 2416 ft | 149 kts | 241° |
| 2026-05-05 20:25 | 39.61389 | 2.88585 | 2207 ft | 140 kts | 241° |
| 2026-05-05 20:25 | 39.60893 | 2.87530 | 2023 ft | 135 kts | 240° |
| 2026-05-05 20:26 | 39.60412 | 2.86506 | 1853 ft | 130 kts | 241° |
| 2026-05-05 20:26 | 39.59944 | 2.85511 | 1693 ft | 128 kts | 240° |
| 2026-05-05 20:26 | 39.59479 | 2.84523 | 1518 ft | 129 kts | 240° |
| 2026-05-05 20:26 | 39.59010 | 2.83526 | 1353 ft | 130 kts | 239° |
| 2026-05-05 20:27 | 39.58545 | 2.82538 | 1160 ft | 131 kts | 239° |
| 2026-05-05 20:27 | 39.58068 | 2.81527 | 997 ft | 129 kts | 239° |
| 2026-05-05 20:27 | 39.57608 | 2.80548 | 822 ft | 128 kts | 238° |
| 2026-05-05 20:27 | 39.57141 | 2.79558 | 648 ft | 129 kts | 238° |
| 2026-05-05 20:28 | 39.56671 | 2.78561 | 471 ft | 130 kts | 237° |
| 2026-05-05 20:28 | 39.56202 | 2.77565 | 306 ft | 129 kts | 238° |
| 2026-05-05 20:28 | 39.55730 | 2.76563 | 135 ft | 130 kts | 237° |
| 2026-05-05 20:28 | 39.55267 | 2.75582 | 34 ft | 121 kts | 239° |
| 2026-05-05 20:29 | 39.54929 | 2.74865 | 34 ft | 54 kts | 238° |
| 2026-05-05 20:29 | 39.54829 | 2.74610 | 37 ft | 27 kts | 260° |
| 2026-05-05 20:29 | 39.54802 | 2.74367 | 38 ft | 28 kts | 264° |
| 2026-05-05 20:29 | 39.54798 | 2.74247 | 38 ft | 0 kts | 269° |
| 2026-05-05 20:30 | 39.54797 | 2.74239 | 38 ft | 0 kts | 268° |
| 2026-05-05 20:31 | 39.54797 | 2.74226 | 38 ft | 7 kts | 268° |
| 2026-05-05 20:31 | 39.54780 | 2.74117 | 39 ft | 15 kts | 249° |
| 2026-05-05 20:32 | 39.54729 | 2.73977 | 40 ft | 18 kts | 270° |
| 2026-05-05 20:32 | 39.54785 | 2.73913 | 40 ft | 5 kts | 26° |
| 2026-05-05 20:32 | 39.54809 | 2.73960 | 40 ft | 8 kts | 55° |
| 2026-05-05 20:32 | 39.54863 | 2.73981 | 39 ft | 10 kts | 343° |
| 2026-05-05 20:33 | 39.54933 | 2.73933 | 39 ft | 13 kts | 326° |
| 2026-05-05 20:33 | 39.55019 | 2.73866 | 39 ft | 16 kts | 329° |
| 2026-05-05 20:33 | 39.55123 | 2.73787 | 40 ft | 19 kts | 329° |
| 2026-05-05 20:33 | 39.55199 | 2.73649 | 40 ft | 20 kts | 302° |
| 2026-05-05 20:34 | 39.55310 | 2.73536 | 40 ft | 22 kts | 331° |
| 2026-05-05 20:34 | 39.55445 | 2.73456 | 40 ft | 14 kts | 5° |
| 2026-05-05 20:34 | 39.55480 | 2.73506 | 40 ft | 8 kts | 66° |
| 2026-05-05 20:34 | 39.55522 | 2.73566 | 40 ft | 10 kts | 19° |
| 2026-05-05 20:35 | 39.55588 | 2.73526 | 40 ft | 12 kts | 326° |
| 2026-05-05 20:35 | 39.55608 | 2.73423 | 40 ft | 13 kts | 246° |
| 2026-05-05 20:35 | 39.55568 | 2.73368 | 40 ft | 2 kts | 174° |
| 2026-05-05 20:35 | 39.55551 | 2.73386 | 40 ft | 8 kts | 140° |
| 2026-05-05 20:36 | 39.55500 | 2.73425 | 40 ft | 0 kts | 169° |
| 2026-05-05 20:38 | 39.55542 | 2.73449 | 40 ft | 0 kts | 51° |